createdAt,value
2018-12-14T00:01:56.097Z,22.13
2018-12-14T00:04:23.945Z,25.57
2018-12-14T00:06:51.483Z,23.67
2018-12-14T00:09:19.043Z,28.07
2018-12-14T00:11:46.627Z,25.12
2018-12-14T00:14:14.180Z,25.85
2018-12-14T00:16:41.718Z,26.00
2018-12-14T00:19:09.310Z,27.27
2018-12-14T00:21:36.882Z,26.10
2018-12-14T00:24:04.519Z,31.55
2018-12-14T00:26:32.058Z,20.05
2018-12-14T00:28:59.614Z,27.77
2018-12-14T00:31:27.310Z,24.87
2018-12-14T00:33:54.869Z,20.43
2018-12-14T00:36:22.399Z,21.85
2018-12-14T00:38:49.963Z,29.65
2018-12-14T00:41:17.500Z,28.47
2018-12-14T00:43:45.049Z,28.87
2018-12-14T00:46:12.582Z,21.80
2018-12-14T00:48:40.134Z,28.95
2018-12-14T00:51:07.666Z,26.50
2018-12-14T00:53:35.219Z,25.97
2018-12-14T00:56:02.750Z,28.73
2018-12-14T00:58:30.301Z,21.82
2018-12-14T01:00:57.838Z,24.18
2018-12-14T01:03:25.425Z,23.83
2018-12-14T01:05:52.953Z,23.77
2018-12-14T01:08:20.516Z,21.25
2018-12-14T01:10:48.055Z,25.55
2018-12-14T01:13:15.611Z,26.30
2018-12-14T01:15:43.218Z,25.50
2018-12-14T01:18:10.750Z,25.12
2018-12-14T01:20:38.302Z,33.10
2018-12-14T01:23:05.838Z,25.45
2018-12-14T01:25:33.399Z,26.40
2018-12-14T01:28:01.031Z,23.05
2018-12-14T01:30:28.597Z,28.02
2018-12-14T01:32:56.131Z,23.60
2018-12-14T01:35:23.811Z,22.00
2018-12-14T01:37:51.417Z,24.98
2018-12-14T01:40:19.099Z,21.75
2018-12-14T01:42:46.672Z,26.27
2018-12-14T01:45:14.229Z,26.82
2018-12-14T01:47:41.763Z,22.52
2018-12-14T01:50:09.397Z,25.52
2018-12-14T01:52:37.023Z,23.15
2018-12-14T01:55:04.698Z,30.40
2018-12-14T01:57:32.265Z,23.95
2018-12-14T01:59:59.818Z,26.73
2018-12-14T02:02:27.353Z,25.77
2018-12-14T02:04:54.906Z,22.30
2018-12-14T02:07:22.434Z,27.07
2018-12-14T02:09:50.134Z,25.43
2018-12-14T02:12:17.662Z,22.62
2018-12-14T02:14:45.209Z,24.10
2018-12-14T02:17:12.733Z,21.15
2018-12-14T02:19:40.326Z,21.65
2018-12-14T02:22:07.920Z,23.62
2018-12-14T02:24:35.505Z,19.73
2018-12-14T02:27:03.039Z,23.40
2018-12-14T02:29:30.594Z,27.82
2018-12-14T02:31:58.217Z,25.80
2018-12-14T02:34:25.767Z,26.82
2018-12-14T02:36:53.302Z,22.52
2018-12-14T02:39:20.866Z,23.45
2018-12-14T02:41:48.402Z,23.35
2018-12-14T02:44:15.949Z,22.55
2018-12-14T02:46:43.478Z,27.70
2018-12-14T02:49:11.025Z,34.63
2018-12-14T02:51:38.690Z,26.90
2018-12-14T02:54:06.249Z,26.25
2018-12-14T02:56:33.806Z,34.45
2018-12-14T02:59:01.374Z,26.45
2018-12-14T03:01:29.074Z,24.23
2018-12-14T03:03:56.610Z,27.60
2018-12-14T03:06:24.226Z,25.97
2018-12-14T03:08:51.758Z,26.82
2018-12-14T03:11:19.381Z,24.55
2018-12-14T03:13:46.951Z,23.67
2018-12-14T03:16:14.509Z,25.40
2018-12-14T03:18:42.081Z,25.02
2018-12-14T03:21:09.663Z,29.18
2018-12-14T03:23:37.190Z,29.75
2018-12-14T03:26:04.826Z,25.43
2018-12-14T03:28:32.388Z,23.12
2018-12-14T03:31:00.047Z,21.23
2018-12-14T03:33:27.626Z,30.45
2018-12-14T03:35:55.307Z,25.68
2018-12-14T03:38:22.879Z,24.90
2018-12-14T03:40:50.613Z,22.70
2018-12-14T03:43:18.211Z,28.00
2018-12-14T03:45:45.762Z,27.30
2018-12-14T03:48:13.343Z,24.80
2018-12-14T03:50:40.945Z,24.67
2018-12-14T03:53:08.478Z,25.17
2018-12-14T03:55:36.025Z,26.35
2018-12-14T03:58:03.697Z,24.80
2018-12-14T04:00:31.395Z,27.25
2018-12-14T04:02:59.065Z,24.90
2018-12-14T04:05:26.863Z,28.07
2018-12-14T04:07:54.402Z,27.40
2018-12-14T04:10:22.032Z,27.37
2018-12-14T04:12:49.561Z,29.90
2018-12-14T04:15:17.121Z,21.75
2018-12-14T04:17:44.746Z,24.30
2018-12-14T04:20:12.352Z,27.62
2018-12-14T04:22:39.882Z,27.30
2018-12-14T04:25:07.470Z,25.92
2018-12-14T04:27:35.006Z,24.35
2018-12-14T04:30:02.743Z,29.82
2018-12-14T04:32:30.390Z,22.62
2018-12-14T04:34:57.938Z,23.15
2018-12-14T04:37:25.469Z,27.02
2018-12-14T04:39:53.023Z,28.83
2018-12-14T04:42:20.737Z,34.33
2018-12-14T04:44:48.352Z,21.77
2018-12-14T04:47:16.234Z,26.60
2018-12-14T04:49:44.018Z,33.08
2018-12-14T04:52:11.682Z,28.23
2018-12-14T04:54:39.226Z,27.07
2018-12-14T04:57:06.902Z,25.50
2018-12-14T04:59:34.526Z,24.07
2018-12-14T05:02:02.173Z,27.07
2018-12-14T05:04:29.701Z,26.95
2018-12-14T05:06:57.259Z,27.05
2018-12-14T05:09:24.893Z,19.85
2018-12-14T05:11:52.448Z,22.95
2018-12-14T05:14:20.274Z,26.15
2018-12-14T05:16:47.920Z,21.50
2018-12-14T05:19:15.503Z,26.80
2018-12-14T05:21:43.510Z,24.45
2018-12-14T05:24:11.146Z,24.50
2018-12-14T05:26:38.717Z,28.12
2018-12-14T05:29:06.255Z,29.05
2018-12-14T05:31:33.866Z,27.27
2018-12-14T05:34:01.451Z,27.40
2018-12-14T05:36:29.118Z,31.35
2018-12-14T05:38:56.681Z,24.35
2018-12-14T05:41:24.233Z,22.98
2018-12-14T05:43:51.769Z,24.15
2018-12-14T05:46:19.411Z,24.18
2018-12-14T05:48:46.989Z,26.12
2018-12-14T05:51:14.656Z,22.02
2018-12-14T05:53:42.183Z,18.45
2018-12-14T05:56:09.775Z,25.80
2018-12-14T05:58:37.324Z,21.00
2018-12-14T06:01:04.873Z,22.45
2018-12-14T06:03:32.403Z,25.55
2018-12-14T06:06:00.034Z,21.12
2018-12-14T06:08:27.567Z,21.02
2018-12-14T06:10:55.162Z,21.30
2018-12-14T06:13:22.695Z,21.57
2018-12-14T06:15:50.339Z,24.90
2018-12-14T06:18:17.958Z,16.95
2018-12-14T06:20:45.530Z,26.57
2018-12-14T06:23:13.106Z,18.75
2018-12-14T06:25:40.771Z,15.90
2018-12-14T06:28:08.309Z,21.05
2018-12-14T06:30:35.875Z,19.90
2018-12-14T06:33:03.427Z,16.90
2018-12-14T06:35:30.967Z,16.65
2018-12-14T06:37:58.554Z,14.63
2018-12-14T06:40:26.126Z,22.75
2018-12-14T06:42:53.690Z,15.53
2018-12-14T06:45:21.250Z,17.62
2018-12-14T06:47:48.801Z,13.75
2018-12-14T06:50:16.374Z,15.03
2018-12-14T06:52:43.931Z,14.70
2018-12-14T06:55:11.582Z,17.85
2018-12-14T06:57:39.215Z,15.78
2018-12-14T07:00:07.625Z,18.65
2018-12-14T07:02:35.268Z,14.87
2018-12-14T07:05:02.837Z,17.42
2018-12-14T07:07:30.382Z,14.55
2018-12-14T07:09:57.950Z,15.40
2018-12-14T07:12:25.549Z,13.05
2018-12-14T07:14:53.084Z,14.03
2018-12-14T07:17:20.678Z,12.88
2018-12-14T07:19:48.281Z,13.22
2018-12-14T07:22:15.829Z,13.72
2018-12-14T07:24:43.353Z,13.93
2018-12-14T07:27:10.908Z,13.95
2018-12-14T07:29:38.447Z,15.43
2018-12-14T07:32:06.044Z,13.88
2018-12-14T07:34:33.585Z,12.55
2018-12-14T07:37:01.186Z,14.73
2018-12-14T07:39:28.723Z,15.50
2018-12-14T07:41:56.279Z,12.60
2018-12-14T07:44:23.885Z,12.60
2018-12-14T07:46:51.578Z,11.65
2018-12-14T07:49:19.115Z,11.35
2018-12-14T07:51:46.661Z,13.43
2018-12-14T07:54:14.194Z,14.05
2018-12-14T07:56:41.750Z,12.93
2018-12-14T07:59:09.624Z,13.20
2018-12-14T08:01:37.174Z,17.60
2018-12-14T08:04:04.699Z,16.85
2018-12-14T08:06:32.250Z,15.05
2018-12-14T08:08:59.791Z,19.55
2018-12-14T08:11:27.382Z,14.65
2018-12-14T08:13:54.914Z,15.25
2018-12-14T08:16:22.452Z,14.90
2018-12-14T08:18:50.050Z,14.63
2018-12-14T08:21:17.706Z,16.12
2018-12-14T08:23:45.263Z,12.15
2018-12-14T08:26:12.790Z,14.60
2018-12-14T08:28:40.334Z,13.08
2018-12-14T08:31:07.863Z,13.10
2018-12-14T08:33:35.421Z,10.53
2018-12-14T08:36:02.954Z,14.78
2018-12-14T08:38:30.504Z,15.00
2018-12-14T08:40:58.032Z,16.07
2018-12-14T08:43:25.582Z,13.55
2018-12-14T08:45:53.213Z,13.53
2018-12-14T08:48:20.898Z,14.40
2018-12-14T08:50:48.571Z,14.35
2018-12-14T08:53:16.362Z,22.87
2018-12-14T08:55:43.891Z,13.53
2018-12-14T08:58:11.437Z,14.85
2018-12-14T09:00:38.965Z,15.25
2018-12-14T09:03:06.515Z,17.40
2018-12-14T09:05:34.046Z,16.15
2018-12-14T09:08:01.666Z,18.02
2018-12-14T09:10:29.242Z,12.90
2018-12-14T09:12:56.798Z,18.67
2018-12-14T09:15:24.333Z,15.45
2018-12-14T09:17:51.959Z,15.70
2018-12-14T09:20:19.488Z,19.42
2018-12-14T09:22:47.277Z,15.43
2018-12-14T09:25:14.816Z,15.10
2018-12-14T09:27:42.455Z,14.65
2018-12-14T09:30:10.065Z,17.07
2018-12-14T09:32:37.624Z,13.98
2018-12-14T09:35:05.274Z,12.78
2018-12-14T09:37:32.818Z,16.62
2018-12-14T09:40:00.347Z,16.42
2018-12-14T09:42:27.894Z,16.57
2018-12-14T09:44:55.462Z,14.68
2018-12-14T09:47:23.011Z,17.42
2018-12-14T09:49:50.546Z,14.55
2018-12-14T09:52:18.094Z,14.15
2018-12-14T09:54:45.627Z,15.83
2018-12-14T09:57:13.195Z,15.98
2018-12-14T09:59:40.722Z,17.27
2018-12-14T10:02:08.329Z,20.02
2018-12-14T10:04:35.875Z,18.85
2018-12-14T10:07:03.403Z,15.93
2018-12-14T10:09:30.953Z,17.05
2018-12-14T10:11:58.482Z,16.42
2018-12-14T10:14:26.034Z,15.65
2018-12-14T10:16:53.601Z,16.75
2018-12-14T10:19:21.156Z,22.00
2018-12-14T10:21:48.746Z,14.95
2018-12-14T10:24:16.301Z,27.87
2018-12-14T10:26:43.875Z,21.82
2018-12-14T10:29:11.422Z,21.93
2018-12-14T10:31:39.026Z,20.85
2018-12-14T10:34:06.569Z,18.70
2018-12-14T10:36:34.178Z,22.50
2018-12-14T10:39:01.747Z,15.60
2018-12-14T10:41:29.384Z,17.52
2018-12-14T10:43:56.971Z,21.52
2018-12-14T10:46:24.539Z,16.37
2018-12-14T10:48:52.086Z,21.93
2018-12-14T10:51:19.711Z,19.27
2018-12-14T10:53:47.257Z,22.50
2018-12-14T10:56:14.789Z,20.23
2018-12-14T10:58:42.334Z,17.60
2018-12-14T11:01:15.591Z,21.80
2018-12-14T11:03:43.138Z,23.60
2018-12-14T11:06:10.670Z,25.02
2018-12-14T11:08:38.226Z,22.85
2018-12-14T11:11:05.750Z,18.12
2018-12-14T11:13:33.299Z,20.10
2018-12-14T11:16:00.830Z,21.12
2018-12-14T11:18:28.373Z,22.17
2018-12-14T11:20:55.906Z,24.82
2018-12-14T11:23:23.478Z,26.77
2018-12-14T11:25:51.007Z,19.05
2018-12-14T11:28:19.466Z,23.20
2018-12-14T11:30:46.998Z,22.48
2018-12-14T11:33:15.441Z,22.02
2018-12-14T11:35:43.021Z,21.10
2018-12-14T11:38:10.617Z,23.60
2018-12-14T11:40:38.149Z,23.35
2018-12-14T11:43:05.796Z,24.18
2018-12-14T11:45:33.395Z,24.60
2018-12-14T11:48:00.926Z,19.82
2018-12-14T11:50:28.471Z,20.92
2018-12-14T11:52:56.004Z,20.15
2018-12-14T11:55:23.550Z,19.40
2018-12-14T11:57:51.082Z,23.55
2018-12-14T12:00:18.634Z,22.42
2018-12-14T12:02:46.167Z,24.37
2018-12-14T12:05:13.717Z,26.23
2018-12-14T12:07:42.434Z,21.87
2018-12-14T12:10:10.105Z,23.38
2018-12-14T12:12:37.633Z,18.45
2018-12-14T12:15:05.258Z,24.47
2018-12-14T12:17:33.314Z,26.25
2018-12-14T12:20:00.861Z,27.77
2018-12-14T12:22:28.395Z,22.10
2018-12-14T12:24:55.971Z,23.50
2018-12-14T12:27:23.502Z,21.42
2018-12-14T12:29:51.052Z,25.52
2018-12-14T12:32:18.586Z,17.02
2018-12-14T12:34:46.147Z,33.85
2018-12-14T12:37:13.730Z,19.73
2018-12-14T12:39:41.392Z,20.48
2018-12-14T12:42:08.923Z,24.25
2018-12-14T12:44:36.479Z,23.18
2018-12-14T12:47:04.059Z,21.50
2018-12-14T12:49:31.613Z,30.10
2018-12-14T12:51:59.147Z,25.60
2018-12-14T12:54:26.693Z,24.00
2018-12-14T12:56:54.262Z,20.20
2018-12-14T12:59:23.557Z,20.72
2018-12-14T13:01:51.835Z,20.82
2018-12-14T13:04:19.386Z,26.68
2018-12-14T13:06:46.918Z,24.10
2018-12-14T13:09:14.477Z,25.95
2018-12-14T13:11:42.054Z,24.85
2018-12-14T13:14:09.606Z,27.65
2018-12-14T13:16:37.134Z,25.57
2018-12-14T13:19:04.725Z,31.50
2018-12-14T13:21:32.339Z,23.95
2018-12-14T13:23:59.894Z,25.23
2018-12-14T13:26:27.425Z,27.70
2018-12-14T13:28:54.974Z,24.77
2018-12-14T13:31:22.545Z,28.05
2018-12-14T13:33:50.098Z,29.32
2018-12-14T13:36:18.099Z,33.80
2018-12-14T13:38:45.756Z,25.50
2018-12-14T13:41:13.366Z,28.32
2018-12-14T13:43:41.030Z,26.12
2018-12-14T13:46:08.593Z,27.48
2018-12-14T13:48:36.172Z,35.98
2018-12-14T13:51:03.721Z,25.52
2018-12-14T13:53:31.254Z,31.37
2018-12-14T13:55:58.864Z,28.38
2018-12-14T13:58:26.395Z,26.15
2018-12-14T14:00:53.941Z,32.17
2018-12-14T14:03:21.475Z,30.55
2018-12-14T14:05:49.034Z,43.98
2018-12-14T14:08:16.572Z,33.02
2018-12-14T14:10:44.162Z,34.35
2018-12-14T14:13:11.695Z,23.65
2018-12-14T14:15:39.246Z,26.82
2018-12-14T14:18:06.793Z,27.70
2018-12-14T14:20:34.388Z,25.77
2018-12-14T14:23:02.388Z,24.27
2018-12-14T14:25:30.071Z,28.00
2018-12-14T14:27:57.611Z,23.77
2018-12-14T14:30:25.289Z,30.30
2018-12-14T14:32:52.831Z,25.90
2018-12-14T14:35:20.386Z,37.38
2018-12-14T14:37:47.913Z,38.65
2018-12-14T14:40:15.466Z,35.45
2018-12-14T14:42:43.003Z,26.95
2018-12-14T14:45:10.599Z,31.65
2018-12-14T14:47:38.134Z,26.70
2018-12-14T14:50:07.874Z,28.45
2018-12-14T14:52:35.414Z,23.42
2018-12-14T14:55:03.149Z,29.85
2018-12-14T14:57:30.719Z,32.20
2018-12-14T14:59:58.272Z,30.50
2018-12-14T15:02:25.811Z,27.20
2018-12-14T15:04:53.375Z,29.15
2018-12-14T15:07:20.919Z,27.87
2018-12-14T15:09:48.471Z,28.17
2018-12-14T15:12:16.001Z,38.25
2018-12-14T15:14:44.731Z,29.00
2018-12-14T15:17:12.501Z,30.60
2018-12-14T15:19:40.119Z,35.03
2018-12-14T15:22:07.701Z,35.50
2018-12-14T15:24:35.239Z,31.55
2018-12-14T15:27:02.834Z,26.62
2018-12-14T15:29:30.374Z,29.20
2018-12-14T15:31:58.307Z,33.33
2018-12-14T15:34:25.833Z,36.33
2018-12-14T15:36:53.390Z,32.80
2018-12-14T15:39:20.926Z,36.48
2018-12-14T15:41:48.486Z,39.67
2018-12-14T15:44:16.021Z,32.85
2018-12-14T15:46:43.584Z,33.90
2018-12-14T15:49:11.114Z,33.85
2018-12-14T15:51:38.670Z,27.70
2018-12-14T15:54:06.230Z,29.32
2018-12-14T15:56:33.829Z,37.33
2018-12-14T15:59:01.357Z,31.17
2018-12-14T16:01:28.914Z,34.05
2018-12-14T16:03:56.451Z,36.13
2018-12-14T16:06:24.003Z,36.85
2018-12-14T16:08:51.538Z,32.45
2018-12-14T16:11:19.090Z,52.65
2018-12-14T16:13:46.623Z,33.40
2018-12-14T16:16:14.174Z,26.87
2018-12-14T16:18:41.712Z,36.68
2018-12-14T16:21:09.269Z,34.58
2018-12-14T16:23:36.837Z,38.55
2018-12-14T16:26:04.578Z,35.70
2018-12-14T16:28:32.213Z,37.13
2018-12-14T16:30:59.765Z,37.08
2018-12-14T16:33:27.301Z,37.13
2018-12-14T16:35:54.862Z,33.78
2018-12-14T16:38:22.402Z,30.50
2018-12-14T16:40:49.957Z,33.30
2018-12-14T16:43:17.704Z,29.50
2018-12-14T16:45:45.337Z,38.17
2018-12-14T16:48:12.871Z,36.00
2018-12-14T16:50:40.502Z,30.12
2018-12-14T16:53:08.286Z,32.63
2018-12-14T16:55:35.849Z,33.90
2018-12-14T16:58:03.422Z,35.35
2018-12-14T17:00:31.047Z,29.90
2018-12-14T17:02:58.632Z,32.23
2018-12-14T17:05:26.168Z,39.58
2018-12-14T17:07:53.729Z,32.70
2018-12-14T17:10:21.342Z,34.08
2018-12-14T17:12:48.933Z,36.68
2018-12-14T17:15:16.461Z,34.38
2018-12-14T17:17:44.016Z,34.10
2018-12-14T17:20:11.591Z,31.23
2018-12-14T17:22:39.248Z,40.92
2018-12-14T17:25:06.878Z,43.40
2018-12-14T17:27:34.522Z,34.48
2018-12-14T17:30:02.214Z,34.10
2018-12-14T17:32:29.771Z,34.50
2018-12-14T17:34:57.355Z,41.75
2018-12-14T17:37:24.914Z,35.43
2018-12-14T17:39:52.494Z,41.23
2018-12-14T17:42:20.066Z,39.03
2018-12-14T17:44:47.679Z,30.92
2018-12-14T17:47:15.314Z,47.48
2018-12-14T17:49:42.851Z,40.67
2018-12-14T17:52:10.462Z,38.15
2018-12-14T17:54:37.998Z,38.73
2018-12-14T17:57:05.610Z,42.15
2018-12-14T17:59:33.145Z,37.53
2018-12-14T18:02:00.698Z,43.35
2018-12-14T18:04:28.235Z,47.08
2018-12-14T18:06:55.782Z,44.42
2018-12-14T18:09:23.362Z,39.53
2018-12-14T18:11:51.046Z,40.38
2018-12-14T18:14:18.578Z,34.35
2018-12-14T18:16:46.274Z,41.35
2018-12-14T18:19:13.845Z,39.18
2018-12-14T18:21:41.394Z,45.33
2018-12-14T18:24:08.927Z,32.78
2018-12-14T18:26:36.481Z,37.63
2018-12-14T18:29:04.056Z,39.67
2018-12-14T18:31:31.610Z,41.28
2018-12-14T18:33:59.142Z,37.15
2018-12-14T18:36:26.739Z,46.02
2018-12-14T18:38:54.274Z,35.45
2018-12-14T18:41:21.911Z,39.10
2018-12-14T18:43:49.547Z,38.55
2018-12-14T18:46:17.150Z,40.75
2018-12-14T18:48:44.726Z,37.75
2018-12-14T18:51:12.294Z,32.60
2018-12-14T18:53:41.883Z,34.25
2018-12-14T18:56:09.422Z,39.90
2018-12-14T18:58:36.997Z,34.15
2018-12-14T19:01:04.531Z,33.70
2018-12-14T19:03:32.082Z,35.55
2018-12-14T19:05:59.624Z,28.75
2018-12-14T19:08:27.344Z,35.45
2018-12-14T19:10:54.973Z,38.75
2018-12-14T19:13:22.609Z,47.60
2018-12-14T19:15:50.176Z,35.10
2018-12-14T19:18:17.770Z,40.20
2018-12-14T19:20:45.319Z,39.70
2018-12-14T19:23:19.423Z,41.92
2018-12-14T19:25:42.524Z,44.85
2018-12-14T19:28:10.076Z,29.07
2018-12-14T19:30:37.610Z,29.05
2018-12-14T19:33:05.161Z,34.08
2018-12-14T19:35:32.738Z,32.58
2018-12-14T19:38:00.290Z,30.92
2018-12-14T19:40:27.822Z,37.80
2018-12-14T19:42:55.382Z,39.88
2018-12-14T19:45:22.994Z,35.73
2018-12-14T19:47:52.062Z,37.08
2018-12-14T19:50:19.676Z,51.83
2018-12-14T19:52:47.342Z,47.67
2018-12-14T19:55:14.869Z,47.33
2018-12-14T19:57:42.482Z,41.63
2018-12-14T20:00:12.048Z,38.33
2018-12-14T20:02:39.637Z,33.83
2018-12-14T20:05:08.162Z,30.88
2018-12-14T20:07:35.815Z,32.88
2018-12-14T20:10:04.131Z,35.13
2018-12-14T20:12:31.682Z,32.55
2018-12-14T20:14:59.228Z,32.05
2018-12-14T20:17:26.830Z,32.53
2018-12-14T20:19:54.367Z,31.82
2018-12-14T20:22:22.695Z,33.60
2018-12-14T20:24:50.274Z,30.40
2018-12-14T20:27:17.933Z,40.23
2018-12-14T20:29:45.505Z,38.50
2018-12-14T20:32:13.105Z,30.48
2018-12-14T20:34:40.637Z,34.75
2018-12-14T20:37:08.205Z,29.37
2018-12-14T20:39:35.793Z,32.55
2018-12-14T20:42:03.362Z,40.15
2018-12-14T20:44:30.936Z,39.05
2018-12-14T20:46:58.547Z,31.00
2018-12-14T20:49:26.099Z,33.20
2018-12-14T20:51:53.638Z,34.50
2018-12-14T20:54:21.185Z,35.38
2018-12-14T20:56:51.546Z,45.17
2018-12-14T20:59:18.291Z,33.15
2018-12-14T21:01:45.820Z,36.15
2018-12-14T21:04:13.370Z,46.80
2018-12-14T21:06:40.917Z,38.75
2018-12-14T21:09:08.474Z,46.40
2018-12-14T21:11:36.065Z,41.13
2018-12-14T21:14:03.663Z,40.28
2018-12-14T21:16:31.243Z,38.67
2018-12-14T21:18:58.808Z,33.13
2018-12-14T21:21:26.470Z,35.83
2018-12-14T21:23:54.041Z,33.70
2018-12-14T21:26:21.579Z,38.33
2018-12-14T21:28:49.173Z,32.30
2018-12-14T21:31:16.710Z,38.78
2018-12-14T21:33:44.301Z,41.08
2018-12-14T21:36:11.834Z,41.75
2018-12-14T21:38:39.391Z,34.13
2018-12-14T21:41:06.962Z,36.77
2018-12-14T21:43:34.513Z,33.48
2018-12-14T21:46:02.048Z,38.23
2018-12-14T21:48:29.601Z,38.90
2018-12-14T21:50:57.134Z,40.85
2018-12-14T21:53:24.685Z,35.55
2018-12-14T21:55:52.257Z,39.95
2018-12-14T21:58:19.809Z,46.42
2018-12-14T22:00:47.392Z,37.33
2018-12-14T22:03:14.950Z,36.03
2018-12-14T22:05:42.486Z,33.92
2018-12-14T22:08:10.138Z,39.27
2018-12-14T22:10:37.670Z,39.03
2018-12-14T22:13:05.222Z,40.75
2018-12-14T22:15:32.763Z,43.17
2018-12-14T22:18:00.362Z,40.12
2018-12-14T22:20:28.030Z,45.35
2018-12-14T22:22:55.609Z,41.92
2018-12-14T22:25:23.281Z,36.85
2018-12-14T22:27:52.145Z,42.45
2018-12-14T22:30:19.961Z,39.98
2018-12-14T22:32:47.498Z,41.37
2018-12-14T22:35:15.057Z,44.83
2018-12-14T22:37:42.610Z,43.48
2018-12-14T22:40:10.203Z,41.53
2018-12-14T22:42:37.738Z,48.85
2018-12-14T22:45:05.471Z,44.50
2018-12-14T22:47:33.001Z,50.43
2018-12-14T22:50:00.548Z,49.27
2018-12-14T22:52:28.117Z,76.77
2018-12-14T22:54:55.674Z,47.10
2018-12-14T22:57:23.202Z,45.75
2018-12-14T22:59:50.841Z,40.15
2018-12-14T23:02:18.424Z,43.40
2018-12-14T23:04:45.981Z,42.58
2018-12-14T23:07:13.522Z,37.35
2018-12-14T23:09:41.124Z,35.78
2018-12-14T23:12:08.697Z,39.03
2018-12-14T23:14:36.250Z,44.10
2018-12-14T23:17:03.883Z,43.95
2018-12-14T23:19:31.442Z,41.10
2018-12-14T23:21:59.018Z,32.73
2018-12-14T23:24:26.562Z,37.35
2018-12-14T23:26:54.094Z,43.50
2018-12-14T23:29:21.642Z,41.68
2018-12-14T23:31:49.184Z,39.15
2018-12-14T23:34:16.741Z,35.45
2018-12-14T23:36:44.326Z,40.48
2018-12-14T23:39:11.987Z,34.63
2018-12-14T23:41:39.562Z,43.92
2018-12-14T23:44:07.134Z,48.60
2018-12-14T23:46:34.706Z,43.13
2018-12-14T23:49:02.282Z,42.88
2018-12-14T23:51:29.832Z,49.95
2018-12-14T23:53:57.385Z,41.13
2018-12-14T23:56:24.930Z,44.88
2018-12-14T23:58:52.486Z,40.10
